Time;durP1;ratioP1;P1;durP2;ratioP2;P2;SDS_P1;SDS_P2;PMS_P1;PMS_P2;Temp;Humidity;BMP_temperature;BMP_pressure;BME280_temperature;BME280_humidity;BME280_pressure;Samples;Min_cycle;Max_cycle;Signal;HPM_P1;HPM_P2
2024/01/03 00:00:26;;;;;;;28.10;3.10;;;;;;;11.73;88.67;98649.69;5010190;28;20046;-46
2024/01/03 00:02:52;;;;;;;15.98;2.97;;;;;;;12.28;86.84;98632.47;5009590;28;20049;-46
2024/01/03 00:05:25;;;;;;;22.17;2.65;;;;;;;12.05;86.91;98650.56;5009656;28;20053;-46
2024/01/03 00:07:51;;;;;;;21.00;2.78;;;;;;;12.28;88.11;98665.59;5009600;28;20045;-44
2024/01/03 00:10:35;;;;;;;22.65;3.08;;;;;;;12.24;87.06;98657.00;5009582;28;20037;-44
2024/01/03 00:13:00;;;;;;;17.88;3.03;;;;;;;12.29;86.53;98657.72;5009078;28;20512;-47
2024/01/03 00:15:35;;;;;;;33.30;3.50;;;;;;;12.64;84.97;98640.97;5009703;28;20030;-48
2024/01/03 00:18:04;;;;;;;29.42;3.28;;;;;;;12.47;84.79;98640.63;5009502;28;20046;-44
2024/01/03 00:20:29;;;;;;;23.08;3.33;;;;;;;12.63;82.31;98660.16;5009961;28;20045;-47
2024/01/03 00:22:55;;;;;;;21.77;2.70;;;;;;;12.51;82.08;98652.69;5009258;28;20038;-44
2024/01/03 00:25:28;;;;;;;25.90;2.75;;;;;;;12.39;79.91;98632.16;5009312;28;20030;-46
2024/01/03 00:27:54;;;;;;;22.63;3.10;;;;;;;12.56;78.78;98651.66;5009380;28;20042;-48
2024/01/03 00:30:19;;;;;;;22.73;2.85;;;;;;;12.51;77.72;98645.72;5009569;28;20037;-50
2024/01/03 00:32:45;;;;;;;24.17;3.40;;;;;;;12.97;76.32;98657.38;5008896;28;20045;-46
2024/01/03 00:35:12;;;;;;;21.92;3.33;;;;;;;13.10;75.54;98647.41;5009427;28;20113;-46
2024/01/03 00:37:38;;;;;;;20.95;2.60;;;;;;;13.09;75.45;98677.94;5009605;28;20034;-47
2024/01/03 00:40:20;;;;;;;20.88;3.42;;;;;;;12.91;75.36;98681.97;5007107;28;20676;-49
2024/01/03 00:42:45;;;;;;;20.10;2.75;;;;;;;13.02;73.58;98698.19;4989455;28;20378;-47
2024/01/03 00:45:11;;;;;;;24.48;2.50;;;;;;;13.49;73.23;98689.75;4990158;28;20117;-46
2024/01/03 00:47:36;;;;;;;20.48;2.63;;;;;;;13.71;71.97;98698.59;4990485;28;20030;-47
2024/01/03 00:50:03;;;;;;;15.05;2.33;;;;;;;13.24;72.72;98708.84;4990404;28;20512;-43
2024/01/03 00:52:28;;;;;;;23.48;3.35;;;;;;;13.08;74.08;98698.91;4989935;28;20686;-44
2024/01/03 00:54:54;;;;;;;18.58;2.60;;;;;;;13.30;72.76;98698.19;4989086;28;20034;-44
2024/01/03 00:57:19;;;;;;;33.05;4.05;;;;;;;13.23;73.42;98694.09;4989735;28;20038;-46
2024/01/03 00:59:45;;;;;;;22.95;2.75;;;;;;;13.61;71.89;98726.84;4988348;28;20030;-43
2024/01/03 01:02:11;;;;;;;19.60;2.40;;;;;;;13.42;72.33;98719.66;4990063;28;20041;-44
2024/01/03 01:04:39;;;;;;;22.60;2.50;;;;;;;13.65;71.89;98727.63;4989566;28;20064;-44
2024/01/03 01:07:04;;;;;;;27.85;3.08;;;;;;;13.61;72.58;98726.84;4989306;28;20515;-45
2024/01/03 01:09:29;;;;;;;21.30;3.33;;;;;;;13.27;72.70;98741.94;4988439;28;20054;-42
2024/01/03 01:11:55;;;;;;;27.60;3.25;;;;;;;13.65;71.77;98720.63;5011540;23;20060;-45
2024/01/03 01:14:20;;;;;;;20.50;3.22;;;;;;;13.46;72.54;98750.91;4990629;28;20041;-44
2024/01/03 01:16:46;;;;;;;20.38;2.47;;;;;;;13.56;72.74;98760.19;4990394;28;20038;-44
2024/01/03 01:19:11;;;;;;;23.73;3.63;;;;;;;13.78;71.52;98749.88;4990397;28;20058;-46
2024/01/03 01:21:40;;;;;;;22.08;3.00;;;;;;;13.64;71.85;98747.69;4992659;28;20045;-45
2024/01/03 01:24:06;;;;;;;24.50;2.95;;;;;;;13.52;71.75;98762.94;4994452;28;20034;-46
2024/01/03 01:26:31;;;;;;;18.85;2.97;;;;;;;13.41;71.38;98763.28;4995004;28;20398;-45
2024/01/03 01:28:56;;;;;;;20.98;3.10;;;;;;;13.14;71.83;98765.00;4995026;28;20057;-46
2024/01/03 01:31:22;;;;;;;19.77;2.90;;;;;;;13.40;71.34;98761.59;4994907;28;20448;-45
2024/01/03 01:33:47;;;;;;;15.40;2.63;;;;;;;13.38;71.18;98766.00;4994497;28;20136;-45
2024/01/03 01:36:14;;;;;;;27.25;2.83;;;;;;;13.24;71.53;98776.03;4995613;28;20045;-47
2024/01/03 01:38:39;;;;;;;17.45;3.13;;;;;;;13.33;70.92;98781.00;4995941;28;20066;-44
2024/01/03 01:41:04;;;;;;;27.35;3.08;;;;;;;13.24;70.65;98776.03;4995079;28;20053;-46
2024/01/03 01:43:30;;;;;;;14.35;2.70;;;;;;;13.38;70.66;98786.94;4994609;28;20042;-44
2024/01/03 01:45:56;;;;;;;21.23;3.33;;;;;;;13.60;69.71;98803.66;4994043;28;20045;-47
2024/01/03 01:48:22;;;;;;;21.40;2.83;;;;;;;13.57;69.56;98789.84;4993171;28;20397;-46
2024/01/03 01:50:48;;;;;;;20.17;3.63;;;;;;;13.35;70.56;98787.91;4993093;28;20113;-45
2024/01/03 01:53:14;;;;;;;25.67;2.90;;;;;;;13.77;69.66;98793.53;4992734;28;20129;-44
2024/01/03 01:55:40;;;;;;;20.13;2.80;;;;;;;13.30;69.93;98802.88;4992148;28;20046;-52
2024/01/03 01:58:07;;;;;;;17.27;3.05;;;;;;;13.51;69.96;98803.13;4992907;28;20026;-47
2024/01/03 02:00:32;;;;;;;24.42;3.20;;;;;;;13.09;71.24;98821.81;4993621;28;20042;-45
2024/01/03 02:02:58;;;;;;;20.27;2.80;;;;;;;13.06;70.58;98779.16;4992631;28;20042;-45
2024/01/03 02:05:23;;;;;;;18.75;2.70;;;;;;;13.32;70.70;98818.53;4992223;28;20524;-45
2024/01/03 02:07:49;;;;;;;21.88;2.78;;;;;;;13.48;69.88;98818.94;4992861;28;20038;-46
2024/01/03 02:10:14;;;;;;;25.92;3.20;;;;;;;13.23;70.71;98814.44;4993000;28;20520;-45
2024/01/03 02:12:39;;;;;;;26.10;3.15;;;;;;;13.74;69.20;98818.94;4992647;28;20413;-51
2024/01/03 02:15:05;;;;;;;18.80;3.22;;;;;;;13.55;70.13;98808.19;4992334;28;20042;-46
2024/01/03 02:17:32;;;;;;;26.85;3.38;;;;;;;13.66;69.59;98820.97;4993360;28;20088;-45
2024/01/03 02:20:00;;;;;;;24.17;3.10;;;;;;;13.56;69.73;98824.78;4992824;28;20031;-46
2024/01/03 02:22:28;;;;;;;18.77;2.67;;;;;;;13.53;70.45;98825.75;4993224;28;20382;-44
2024/01/03 02:24:53;;;;;;;23.50;2.40;;;;;;;13.70;70.38;98833.06;4992616;28;20062;-44
2024/01/03 02:27:18;;;;;;;18.48;2.50;;;;;;;13.78;69.72;98831.88;4993714;28;20069;-50
2024/01/03 02:29:44;;;;;;;20.80;3.50;;;;;;;13.46;70.22;98850.38;4992451;28;20308;-44
2024/01/03 02:32:09;;;;;;;18.83;2.70;;;;;;;13.73;69.67;98823.31;4995132;28;20129;-45
2024/01/03 02:34:34;;;;;;;24.27;2.88;;;;;;;13.44;69.49;98826.00;4992316;28;20042;-44
2024/01/03 02:37:00;;;;;;;17.95;2.60;;;;;;;13.72;68.74;98829.47;4990940;28;20048;-44
2024/01/03 02:39:26;;;;;;;20.42;2.60;;;;;;;13.52;69.71;98831.00;4992619;28;20521;-48
2024/01/03 02:41:51;;;;;;;21.17;2.72;;;;;;;13.55;69.88;98831.75;4993226;28;20042;-45
2024/01/03 02:44:16;;;;;;;20.40;2.40;;;;;;;13.43;70.54;98820.81;4993688;28;20060;-44
2024/01/03 02:46:42;;;;;;;26.58;3.03;;;;;;;13.39;70.58;98851.47;4991712;28;20035;-43
2024/01/03 02:49:09;;;;;;;13.57;2.30;;;;;;;13.46;70.37;98852.16;4992129;28;20045;-49
2024/01/03 02:51:34;;;;;;;23.05;2.78;;;;;;;13.60;70.79;98840.31;4991763;28;20121;-46
2024/01/03 02:53:59;;;;;;;21.45;2.90;;;;;;;13.54;71.17;98850.16;4991241;28;20176;-48
2024/01/03 02:56:25;;;;;;;20.75;2.30;;;;;;;13.38;70.75;98850.59;4991596;28;20405;-45
2024/01/03 02:58:50;;;;;;;17.90;2.53;;;;;;;13.42;70.67;98856.59;4990024;28;20034;-45
2024/01/03 03:01:15;;;;;;;24.48;3.00;;;;;;;13.58;70.15;98859.63;4991214;28;20042;-45
2024/01/03 03:03:41;;;;;;;22.13;2.67;;;;;;;13.78;69.70;98846.78;4991233;28;20458;-47
2024/01/03 03:06:07;;;;;;;24.20;2.55;;;;;;;13.40;70.69;98846.19;4992695;28;20183;-47
2024/01/03 03:08:32;;;;;;;17.38;2.83;;;;;;;13.75;70.06;98852.94;4992966;28;20038;-49
2024/01/03 03:10:57;;;;;;;22.23;2.40;;;;;;;13.63;70.13;98848.09;4991645;28;20042;-47
2024/01/03 03:13:24;;;;;;;19.23;2.97;;;;;;;13.37;70.66;98846.28;4991051;28;20100;-52
2024/01/03 03:15:49;;;;;;;24.10;3.45;;;;;;;13.54;70.87;98853.59;4990981;28;20038;-48
2024/01/03 03:18:14;;;;;;;22.58;2.83;;;;;;;13.32;71.25;98845.56;4991726;28;20045;-50
2024/01/03 03:20:40;;;;;;;21.10;2.90;;;;;;;13.75;69.18;98863.44;4991628;28;20109;-46
2024/01/03 03:23:05;;;;;;;23.42;3.45;;;;;;;13.88;69.79;98852.56;4990891;28;20521;-46
2024/01/03 03:25:31;;;;;;;20.40;2.97;;;;;;;13.32;71.90;98857.78;4991411;28;20065;-46
2024/01/03 03:27:56;;;;;;;22.75;3.05;;;;;;;13.57;71.21;98856.16;4991393;28;20130;-42
2024/01/03 03:30:22;;;;;;;24.42;2.70;;;;;;;13.54;71.29;98856.22;4991499;28;20588;-46
2024/01/03 03:32:47;;;;;;;32.53;3.58;;;;;;;13.95;70.23;98857.56;4989963;28;20046;-50
2024/01/03 03:35:13;;;;;;;26.10;3.20;;;;;;;13.93;70.73;98858.50;4990811;28;20035;-49
2024/01/03 03:37:42;;;;;;;22.38;3.78;;;;;;;14.07;70.58;98854.53;4991058;28;20066;-47
2024/01/03 03:40:08;;;;;;;28.42;3.72;;;;;;;13.67;72.43;98869.78;4990876;28;20034;-44
2024/01/03 03:42:33;;;;;;;29.00;4.03;;;;;;;13.69;72.56;98873.22;4990773;28;20046;-49
2024/01/03 03:44:58;;;;;;;24.30;4.68;;;;;;;13.93;71.62;98858.50;4989588;28;20042;-48
2024/01/03 03:47:24;;;;;;;26.98;3.33;;;;;;;13.64;72.72;98864.66;4991556;28;20058;-48
2024/01/03 03:49:49;;;;;;;28.60;3.42;;;;;;;13.87;72.01;98864.78;4990634;28;20153;-45
2024/01/03 03:52:14;;;;;;;25.45;3.83;;;;;;;13.39;73.15;98868.03;4991003;28;20478;-44
2024/01/03 03:54:40;;;;;;;20.13;3.25;;;;;;;13.72;72.29;98862.69;4990544;28;20042;-43
2024/01/03 03:57:05;;;;;;;27.33;2.95;;;;;;;13.43;73.12;98884.50;4990643;28;20045;-44
2024/01/03 03:59:30;;;;;;;28.02;3.53;;;;;;;13.27;73.78;98886.72;4989328;28;20041;-47
2024/01/03 04:01:56;;;;;;;26.67;3.33;;;;;;;13.44;73.09;98867.88;4990658;28;20493;-46
2024/01/03 04:04:21;;;;;;;19.50;3.35;;;;;;;13.67;72.91;98867.19;4990617;28;20073;-45
2024/01/03 04:06:47;;;;;;;28.95;3.47;;;;;;;13.53;72.68;98883.34;4989811;28;20037;-44
2024/01/03 04:09:13;;;;;;;31.48;4.00;;;;;;;13.33;74.26;98876.06;4989169;28;20049;-46
2024/01/03 04:11:43;;;;;;;28.25;3.95;;;;;;;13.83;72.82;98868.44;4990726;28;20038;-45
2024/01/03 04:14:11;;;;;;;28.40;3.95;;;;;;;13.23;74.05;98873.78;4990087;28;20465;-44
2024/01/03 04:16:37;;;;;;;23.17;3.10;;;;;;;13.61;73.40;98878.69;4990515;28;20414;-50
2024/01/03 04:19:03;;;;;;;32.92;3.78;;;;;;;13.66;73.68;98878.59;4990482;28;20732;-44
2024/01/03 04:21:30;;;;;;;36.97;4.20;;;;;;;13.66;72.75;98881.19;4990947;28;20044;-46
2024/01/03 04:23:55;;;;;;;31.92;3.90;;;;;;;13.23;74.88;98869.41;4991235;28;20393;-48
2024/01/03 04:26:21;;;;;;;32.53;3.78;;;;;;;13.45;74.54;98882.69;4990926;28;20042;-43
2024/01/03 04:28:46;;;;;;;28.00;3.35;;;;;;;13.79;72.95;98890.38;4990749;28;20501;-45
2024/01/03 04:31:11;;;;;;;34.03;4.38;;;;;;;14.09;72.01;98885.91;4990821;28;20045;-45
2024/01/03 04:33:37;;;;;;;32.60;4.38;;;;;;;13.77;73.19;98884.34;4990411;28;20034;-45
2024/01/03 04:36:02;;;;;;;37.75;5.20;;;;;;;13.66;74.12;98878.59;4989989;28;20050;-50
2024/01/03 04:38:27;;;;;;;35.17;3.67;;;;;;;13.84;73.81;98880.63;4990195;28;20665;-43
2024/01/03 04:40:52;;;;;;;35.58;4.05;;;;;;;13.40;75.28;98881.97;4989916;28;20031;-49
2024/01/03 04:43:18;;;;;;;36.15;4.13;;;;;;;13.66;74.80;98887.25;4990150;28;20037;-46
2024/01/03 04:45:44;;;;;;;38.00;4.85;;;;;;;13.82;74.25;98883.28;4989996;28;20040;-44
2024/01/03 04:48:09;;;;;;;41.63;4.65;;;;;;;13.61;75.09;98885.69;4990229;28;20038;-45
2024/01/03 04:50:34;;;;;;;34.97;5.10;;;;;;;14.12;73.79;98883.22;4990543;28;20096;-50
2024/01/03 04:53:00;;;;;;;38.75;4.40;;;;;;;13.80;73.89;98886.84;4990141;28;20065;-44
2024/01/03 04:55:26;;;;;;;36.22;4.55;;;;;;;14.10;72.74;98890.25;4990736;28;20039;-47
2024/01/03 04:57:52;;;;;;;34.63;4.45;;;;;;;13.59;74.40;98892.75;4993060;28;20038;-45
2024/01/03 05:00:17;;;;;;;33.47;4.18;;;;;;;14.02;73.63;98887.91;4994103;28;20058;-50
2024/01/03 05:02:42;;;;;;;34.88;5.13;;;;;;;13.92;73.88;98890.84;4993674;28;20121;-47
2024/01/03 05:05:08;;;;;;;34.75;4.70;;;;;;;14.10;73.85;98895.50;4993973;28;20037;-45
2024/01/03 05:07:34;;;;;;;32.35;4.53;;;;;;;13.74;74.84;98893.13;4994012;28;20035;-45
2024/01/03 05:10:00;;;;;;;31.65;4.35;;;;;;;13.80;74.99;98887.72;4993941;28;20030;-46
2024/01/03 05:12:26;;;;;;;35.80;4.40;;;;;;;13.96;74.69;98889.84;4994177;28;20062;-45
2024/01/03 05:14:51;;;;;;;43.78;4.82;;;;;;;14.05;73.42;98894.78;4991824;28;20049;-46
2024/01/03 05:17:17;;;;;;;31.65;4.03;;;;;;;13.72;74.44;98884.47;4994351;28;20045;-47
2024/01/03 05:19:43;;;;;;;24.75;3.33;;;;;;;13.29;75.55;98889.28;4993275;28;20533;-48
2024/01/03 05:22:08;;;;;;;25.75;3.17;;;;;;;13.78;74.41;98881.66;4994185;28;20520;-46
2024/01/03 05:24:34;;;;;;;27.40;3.67;;;;;;;13.89;74.51;98883.09;4993868;28;20165;-47
2024/01/03 05:27:00;;;;;;;31.52;3.65;;;;;;;13.65;74.73;98869.00;4993524;28;20432;-46
2024/01/03 05:29:25;;;;;;;25.65;3.08;;;;;;;13.64;75.46;98883.00;4994119;28;20516;-44
2024/01/03 05:31:51;;;;;;;27.55;3.20;;;;;;;13.99;74.01;98893.22;4993807;28;20430;-45
2024/01/03 05:34:16;;;;;;;29.70;3.40;;;;;;;13.59;75.80;98893.63;4993964;28;20038;-46
2024/01/03 05:36:41;;;;;;;20.83;3.28;;;;;;;13.52;75.94;98886.84;4994783;28;20042;-45
2024/01/03 05:39:07;;;;;;;27.33;3.30;;;;;;;13.75;74.77;98894.00;4993732;28;20031;-46
2024/01/03 05:41:33;;;;;;;29.02;3.45;;;;;;;13.79;74.98;98893.84;4991767;28;20507;-43
2024/01/03 05:43:58;;;;;;;23.00;2.95;;;;;;;13.42;75.91;98893.25;4992535;28;20182;-44
2024/01/03 05:46:23;;;;;;;20.70;2.67;;;;;;;13.67;75.01;98899.47;4993250;28;20034;-44
2024/01/03 05:48:49;;;;;;;22.10;2.60;;;;;;;13.68;74.22;98908.16;4992601;28;20409;-49
2024/01/03 05:51:16;;;;;;;22.13;2.40;;;;;;;13.65;75.28;98895.19;4993200;28;20034;-45
2024/01/03 05:53:47;;;;;;;22.33;3.03;;;;;;;13.70;74.00;98895.91;4992198;28;20121;-48
2024/01/03 05:56:15;;;;;;;21.30;2.85;;;;;;;13.59;74.04;98911.94;4992577;28;20468;-45
2024/01/03 05:58:42;;;;;;;19.95;1.95;;;;;;;13.90;73.22;98901.38;4993549;28;20038;-44
2024/01/03 06:01:08;;;;;;;18.08;2.53;;;;;;;13.49;74.15;98900.00;4994011;28;20170;-44
2024/01/03 06:03:33;;;;;;;16.73;2.72;;;;;;;13.56;74.68;98906.78;4993784;28;20234;-45
2024/01/03 06:05:58;;;;;;;19.92;2.47;;;;;;;13.85;73.54;98908.50;4993392;28;20472;-44
2024/01/03 06:08:24;;;;;;;17.08;2.70;;;;;;;13.29;76.39;98913.72;4992400;28;20105;-47
2024/01/03 06:10:49;;;;;;;20.00;2.28;;;;;;;13.46;76.90;98905.34;4992247;28;20401;-43
2024/01/03 06:13:15;;;;;;;18.42;2.63;;;;;;;13.51;76.23;98899.97;4992159;28;20133;-46
2024/01/03 06:15:41;;;;;;;21.13;2.22;;;;;;;13.56;76.96;98904.16;4991940;28;20044;-45
2024/01/03 06:18:06;;;;;;;20.98;2.90;;;;;;;13.12;78.34;98909.78;4992517;28;20034;-46
2024/01/03 06:20:31;;;;;;;19.25;2.55;;;;;;;13.30;77.82;98906.69;4992523;28;20046;-43
2024/01/03 06:22:57;;;;;;;18.20;2.78;;;;;;;13.51;77.71;98913.06;4991678;28;20038;-44
2024/01/03 06:25:22;;;;;;;19.40;2.65;;;;;;;13.38;78.27;98926.50;4992098;28;20041;-45
2024/01/03 06:27:47;;;;;;;19.58;2.63;;;;;;;13.10;79.31;98917.72;4991933;28;20097;-44
2024/01/03 06:30:13;;;;;;;20.67;2.75;;;;;;;13.16;78.87;98927.19;4992138;28;20041;-48
2024/01/03 06:32:38;;;;;;;20.67;2.55;;;;;;;13.40;78.30;98926.47;4991645;28;20038;-45
2024/01/03 06:35:05;;;;;;;27.38;3.00;;;;;;;13.16;78.86;98927.19;4989940;28;20039;-43
2024/01/03 06:37:30;;;;;;;27.83;3.08;;;;;;;13.21;79.43;98927.91;4991231;28;20038;-45
2024/01/03 06:39:56;;;;;;;21.67;3.42;;;;;;;13.41;77.88;98928.19;4991814;28;20033;-48
2024/01/03 06:42:21;;;;;;;23.67;3.05;;;;;;;13.27;78.49;98930.34;4992498;28;20038;-47
2024/01/03 06:44:46;;;;;;;22.42;2.65;;;;;;;13.24;78.03;98926.03;4989672;28;20477;-44
2024/01/03 06:47:12;;;;;;;24.08;2.40;;;;;;;13.01;78.66;98925.78;4992120;28;20046;-46
2024/01/03 06:49:37;;;;;;;23.83;2.85;;;;;;;13.17;77.65;98935.00;4992250;28;20054;-44
2024/01/03 06:52:03;;;;;;;28.27;3.08;;;;;;;12.75;79.65;98936.09;4991617;28;20053;-46
2024/01/03 06:54:28;;;;;;;23.33;2.50;;;;;;;13.13;78.25;98940.31;4991547;28;20121;-43
2024/01/03 06:56:54;;;;;;;16.27;1.80;;;;;;;13.16;78.61;98932.41;4991497;28;20034;-48
2024/01/03 06:59:20;;;;;;;21.13;2.40;;;;;;;13.11;78.64;98944.72;4992285;28;20042;-49
2024/01/03 07:01:45;;;;;;;26.38;2.60;;;;;;;12.69;80.06;98954.53;4992308;28;20624;-44
2024/01/03 07:04:10;;;;;;;18.17;1.88;;;;;;;13.17;78.74;98944.59;4990895;28;20063;-43
2024/01/03 07:06:36;;;;;;;20.17;2.30;;;;;;;13.18;78.66;98952.38;4992436;28;20504;-44
2024/01/03 07:09:01;;;;;;;17.65;2.65;;;;;;;13.05;78.59;98958.84;4992777;28;20037;-46
2024/01/03 07:11:27;;;;;;;20.13;2.28;;;;;;;12.67;79.46;98948.53;4990088;28;20095;-47
2024/01/03 07:13:53;;;;;;;21.23;2.17;;;;;;;13.02;79.12;98945.81;4991797;28;20074;-48
2024/01/03 07:16:18;;;;;;;21.23;2.30;;;;;;;13.14;78.15;98956.00;4990723;28;20065;-49
2024/01/03 07:18:44;;;;;;;22.02;2.58;;;;;;;12.64;79.71;98954.69;4990288;28;20062;-44
2024/01/03 07:21:09;;;;;;;19.13;2.65;;;;;;;12.96;78.58;98956.47;4991550;28;20026;-44
2024/01/03 07:23:34;;;;;;;20.92;2.72;;;;;;;13.38;77.78;98949.22;4990757;28;20046;-48
2024/01/03 07:26:00;;;;;;;22.48;2.42;;;;;;;13.40;77.37;98952.66;4990823;28;20074;-46
2024/01/03 07:28:25;;;;;;;24.67;2.65;;;;;;;13.37;77.46;98963.19;4991295;28;20038;-45
2024/01/03 07:30:51;;;;;;;19.02;2.42;;;;;;;13.30;77.65;98957.28;4990976;28;20040;-45
2024/01/03 07:33:16;;;;;;;17.25;2.40;;;;;;;13.04;78.13;98964.09;4990897;28;20046;-45
2024/01/03 07:35:42;;;;;;;22.70;2.42;;;;;;;13.40;77.85;98963.97;4990397;28;20045;-45
2024/01/03 07:38:07;;;;;;;30.88;2.80;;;;;;;13.33;78.02;98969.41;4990932;28;20035;-49
2024/01/03 07:40:33;;;;;;;19.90;2.97;;;;;;;13.31;77.84;98965.97;4990966;28;20030;-45
2024/01/03 07:42:58;;;;;;;21.02;2.38;;;;;;;13.47;77.46;98967.28;4990231;28;20042;-45
2024/01/03 07:45:24;;;;;;;21.45;2.47;;;;;;;13.10;78.37;98985.72;4991309;28;20412;-46
2024/01/03 07:47:49;;;;;;;25.08;2.80;;;;;;;13.22;77.70;98987.19;4990779;28;20038;-46
2024/01/03 07:50:15;;;;;;;22.45;2.60;;;;;;;13.40;77.32;98984.91;4990732;28;20044;-46
2024/01/03 07:52:42;;;;;;;20.80;2.65;;;;;;;13.37;77.13;98979.75;4989538;28;20039;-50
2024/01/03 07:55:08;;;;;;;25.92;3.15;;;;;;;13.64;75.46;98979.88;4990240;28;20497;-48
2024/01/03 07:57:33;;;;;;;20.67;2.45;;;;;;;13.36;76.72;98982.41;4990647;28;20058;-46
2024/01/03 07:59:59;;;;;;;23.67;2.40;;;;;;;13.55;76.25;98995.84;4990306;28;20038;-48
2024/01/03 08:02:24;;;;;;;25.05;3.22;;;;;;;13.53;76.51;98995.91;4990941;28;20050;-47
2024/01/03 08:04:49;;;;;;;22.73;2.20;;;;;;;13.89;74.64;98988.72;4990371;28;20034;-45
2024/01/03 08:07:15;;;;;;;23.98;3.00;;;;;;;13.96;74.66;98986.78;4990873;28;20034;-51
2024/01/03 08:09:40;;;;;;;19.50;2.38;;;;;;;13.57;75.36;99001.91;4990783;28;20038;-45
2024/01/03 08:12:08;;;;;;;16.80;2.60;;;;;;;13.69;75.15;99007.66;4988768;28;20038;-45
2024/01/03 08:14:35;;;;;;;19.35;2.70;;;;;;;13.68;75.49;99008.53;4990880;28;20039;-45
2024/01/03 08:17:01;;;;;;;19.52;2.58;;;;;;;13.67;75.03;98993.72;4993010;28;20034;-44
2024/01/03 08:19:26;;;;;;;23.30;2.63;;;;;;;13.34;76.06;98999.94;4991686;28;20113;-45
2024/01/03 08:21:51;;;;;;;19.75;2.47;;;;;;;13.49;75.91;99004.72;4992389;28;20064;-45
2024/01/03 08:24:17;;;;;;;20.63;2.30;;;;;;;13.71;75.02;99008.47;4993282;28;20065;-43
2024/01/03 08:26:42;;;;;;;20.80;2.38;;;;;;;13.33;75.65;99012.16;4993569;28;20038;-46
2024/01/03 08:29:11;;;;;;;16.25;2.63;;;;;;;13.49;74.95;99004.72;4993996;28;20485;-49
2024/01/03 08:31:36;;;;;;;13.70;2.05;;;;;;;13.77;74.22;99007.44;4995616;28;20509;-44
2024/01/03 08:34:01;;;;;;;15.63;2.30;;;;;;;13.82;73.26;99014.25;4995257;28;20062;-46
2024/01/03 08:36:39;;;;;;;18.25;2.25;;;;;;;13.95;72.20;99017.38;4995958;28;20034;-45
2024/01/03 08:39:04;;;;;;;17.35;2.20;;;;;;;13.63;74.27;99012.19;4996685;28;20037;-47
2024/01/03 08:41:29;;;;;;;18.90;2.50;;;;;;;13.81;73.78;99012.53;4994927;28;20447;-47
2024/01/03 08:43:55;;;;;;;18.08;2.10;;;;;;;13.71;73.69;99018.09;4993788;28;20101;-47
2024/01/03 08:46:20;;;;;;;21.02;2.50;;;;;;;13.74;72.83;99023.22;4994377;28;20035;-50
2024/01/03 08:48:45;;;;;;;22.70;2.58;;;;;;;13.97;72.48;99020.78;4994179;28;20042;-47
2024/01/03 08:51:14;;;;;;;17.85;2.33;;;;;;;13.85;73.27;99017.66;4994442;28;20027;-50
2024/01/03 08:53:40;;;;;;;16.95;2.13;;;;;;;13.97;72.97;99020.78;4993712;28;20046;-44
2024/01/03 08:56:13;;;;;;;19.17;2.63;;;;;;;13.72;74.23;99025.03;4993672;28;20105;-45
2024/01/03 08:58:38;;;;;;;12.40;2.15;;;;;;;13.69;74.90;99020.75;4994076;28;20035;-45
2024/01/03 09:01:03;;;;;;;17.48;2.20;;;;;;;13.82;74.00;99022.09;4993627;28;20042;-45
2024/01/03 09:03:29;;;;;;;22.08;2.22;;;;;;;13.33;74.79;99029.63;4992197;28;20066;-45
2024/01/03 09:05:54;;;;;;;11.45;1.80;;;;;;;13.37;75.21;99037.34;4993517;28;20039;-46
2024/01/03 09:08:19;;;;;;;17.02;2.35;;;;;;;13.67;74.17;99040.84;4993995;28;20034;-45
2024/01/03 09:10:45;;;;;;;17.58;2.17;;;;;;;13.75;74.20;99044.13;4993427;28;20038;-44
2024/01/03 09:13:10;;;;;;;14.88;2.00;;;;;;;13.80;74.39;99049.22;4993605;28;20043;-43
2024/01/03 09:15:36;;;;;;;17.92;1.98;;;;;;;13.26;76.09;99049.00;4994194;28;20046;-47
2024/01/03 09:18:01;;;;;;;18.55;2.03;;;;;;;13.16;77.45;99052.75;4993238;28;20034;-47
2024/01/03 09:20:26;;;;;;;15.52;2.33;;;;;;;12.97;79.61;99063.66;4993405;28;20042;-46
2024/01/03 09:22:52;;;;;;;17.77;2.08;;;;;;;13.21;79.04;99064.81;4992892;28;20050;-50
2024/01/03 09:25:17;;;;;;;18.42;2.03;;;;;;;13.22;79.03;99057.84;4993329;28;20053;-44
2024/01/03 09:27:43;;;;;;;16.70;1.80;;;;;;;13.34;79.43;99067.97;4993404;28;20047;-45
2024/01/03 09:30:09;;;;;;;15.98;2.33;;;;;;;13.18;79.45;99074.50;4993535;28;20066;-47
2024/01/03 09:32:35;;;;;;;15.88;2.47;;;;;;;13.40;79.12;99079.16;4993237;28;20088;-46
2024/01/03 09:35:00;;;;;;;15.18;2.40;;;;;;;13.23;80.11;99078.75;4992400;28;20125;-48
2024/01/03 09:37:29;;;;;;;17.27;2.10;;;;;;;13.10;79.57;99061.59;4993563;28;20034;-44
2024/01/03 09:39:54;;;;;;;19.20;2.72;;;;;;;13.26;78.81;99088.25;4992708;28;20034;-45
2024/01/03 09:42:20;;;;;;;16.20;2.28;;;;;;;13.31;78.53;99079.38;4992094;28;20046;-47
2024/01/03 09:44:45;;;;;;;17.35;2.20;;;;;;;13.75;76.17;99072.09;4991876;28;20038;-51
2024/01/03 09:47:12;;;;;;;19.08;2.80;;;;;;;13.58;76.95;99069.94;4993403;28;20156;-50
2024/01/03 09:49:37;;;;;;;18.23;2.10;;;;;;;13.24;77.81;99079.56;4993145;28;20098;-45
2024/01/03 09:52:04;;;;;;;12.20;2.17;;;;;;;13.57;76.23;99094.41;4992708;28;20177;-54
2024/01/03 09:54:31;;;;;;;19.23;2.47;;;;;;;13.35;76.51;99082.78;4992941;28;20041;-44
2024/01/03 09:56:56;;;;;;;20.85;2.55;;;;;;;13.57;75.99;99086.53;4992668;28;20124;-45
2024/01/03 09:59:22;;;;;;;18.27;2.58;;;;;;;13.64;76.17;99092.47;4993160;28;20070;-44
2024/01/03 10:01:58;;;;;;;18.17;2.20;;;;;;;13.37;76.38;99094.06;4992886;28;20428;-49
2024/01/03 10:04:24;;;;;;;13.90;2.13;;;;;;;13.77;75.69;99096.47;4993597;28;20096;-45
2024/01/03 10:06:53;;;;;;;18.48;1.90;;;;;;;13.56;76.15;99090.06;4993603;28;20885;-45
2024/01/03 10:09:19;;;;;;;23.45;2.45;;;;;;;14.00;74.19;99091.44;4993702;28;20061;-45
2024/01/03 10:11:45;;;;;;;12.80;2.33;;;;;;;13.37;75.72;99091.44;4993806;28;20038;-45
2024/01/03 10:14:20;;;;;;;15.15;2.38;;;;;;;13.80;74.82;99089.38;4993716;28;20117;-46
2024/01/03 10:16:47;;;;;;;25.23;2.30;;;;;;;13.98;74.45;99076.66;4992461;28;20116;-45
2024/01/03 10:19:14;;;;;;;12.52;1.73;;;;;;;14.29;73.21;99089.72;4992615;28;20069;-45
2024/01/03 10:21:50;;;;;;;18.98;2.38;;;;;;;14.27;72.94;99094.16;4992700;28;20152;-44
2024/01/03 10:24:20;;;;;;;16.02;2.40;;;;;;;13.97;73.83;99090.66;4992263;28;20041;-43
2024/01/03 10:26:46;;;;;;;17.17;2.20;;;;;;;13.71;74.06;99094.03;4992783;28;20078;-48
2024/01/03 10:29:13;;;;;;;18.73;2.40;;;;;;;14.24;72.30;99092.47;4992830;28;20034;-47
2024/01/03 10:31:39;;;;;;;26.38;2.97;;;;;;;13.79;73.45;99098.13;4992327;28;20528;-45
2024/01/03 10:34:04;;;;;;;19.60;2.83;;;;;;;13.80;72.60;99104.22;4991306;28;20513;-43
2024/01/03 10:36:33;;;;;;;18.08;2.20;;;;;;;14.33;70.95;99100.09;4992161;28;20038;-45
2024/01/03 10:38:59;;;;;;;20.55;2.60;;;;;;;13.77;71.93;99109.56;4991780;28;20141;-44
2024/01/03 10:41:25;;;;;;;21.48;2.33;;;;;;;13.59;71.80;99099.59;4992506;28;20049;-49
2024/01/03 10:43:51;;;;;;;19.20;2.33;;;;;;;13.85;71.75;99098.84;4990648;28;20034;-45
2024/01/03 10:46:18;;;;;;;18.45;2.13;;;;;;;14.26;70.14;99108.16;4993080;28;20039;-44
2024/01/03 10:48:43;;;;;;;19.30;2.47;;;;;;;13.89;71.32;99106.63;4992524;28;20042;-45
2024/01/03 10:51:12;;;;;;;15.38;2.25;;;;;;;14.16;70.35;99104.94;4992688;28;20129;-44
2024/01/03 10:53:42;;;;;;;18.80;2.60;;;;;;;13.49;72.15;99101.59;4993506;28;20046;-48
2024/01/03 10:56:09;;;;;;;19.38;3.08;;;;;;;14.28;69.94;99103.72;4994057;28;20091;-49
2024/01/03 10:58:39;;;;;;;19.30;2.53;;;;;;;14.04;70.94;99097.44;4992908;28;20519;-46
2024/01/03 11:01:16;;;;;;;19.30;2.80;;;;;;;14.12;70.41;99098.94;4994559;28;20038;-44
2024/01/03 11:03:59;;;;;;;19.80;2.78;;;;;;;13.97;71.00;99102.00;4993154;28;20512;-43
2024/01/03 11:06:35;;;;;;;19.58;2.65;;;;;;;13.51;71.45;99098.94;4992499;28;20154;-49
2024/01/03 11:09:02;;;;;;;23.50;2.88;;;;;;;13.62;71.42;99100.38;4991792;28;20161;-51
2024/01/03 11:11:38;;;;;;;19.58;2.83;;;;;;;13.94;70.66;99099.47;4992107;28;20045;-47
2024/01/03 11:14:18;;;;;;;18.98;2.55;;;;;;;13.71;71.40;99100.13;4990844;28;20096;-46
2024/01/03 11:16:44;;;;;;;19.48;2.65;;;;;;;14.21;68.64;99092.56;4991055;28;20053;-47
2024/01/03 11:19:10;;;;;;;19.02;2.47;;;;;;;14.47;68.22;99090.06;4991489;28;20117;-45